createdAt,value
2022-09-13T00:00:53.515Z,8.50
2022-09-13T00:03:21.932Z,8.50
2022-09-13T00:05:50.591Z,8.50
2022-09-13T00:08:19.340Z,8.50
2022-09-13T00:10:48.325Z,8.40
2022-09-13T00:13:18.278Z,8.20
2022-09-13T00:15:47.838Z,8.30
2022-09-13T00:18:17.929Z,8.40
2022-09-13T00:20:46.432Z,8.30
2022-09-13T00:23:14.795Z,8.20
2022-09-13T00:25:42.911Z,8.20
2022-09-13T00:28:10.889Z,8.20
2022-09-13T00:30:40.226Z,8.20
2022-09-13T00:33:08.226Z,8.10
2022-09-13T00:35:36.245Z,8.10
2022-09-13T00:38:04.249Z,8.00
2022-09-13T00:40:32.462Z,8.00
2022-09-13T00:43:00.630Z,7.90
2022-09-13T00:45:28.819Z,7.90
2022-09-13T00:48:02.715Z,7.90
2022-09-13T00:50:35.985Z,7.90
2022-09-13T00:53:09.115Z,7.90
2022-09-13T00:55:43.020Z,7.90
2022-09-13T00:58:15.932Z,7.90
2022-09-13T01:00:45.225Z,7.90
2022-09-13T01:03:16.078Z,7.90
2022-09-13T01:05:48.391Z,7.90
2022-09-13T01:08:22.993Z,7.90
2022-09-13T01:10:52.952Z,7.80
2022-09-13T01:13:22.905Z,7.60
2022-09-13T01:15:51.937Z,7.60
2022-09-13T01:18:21.820Z,7.50
2022-09-13T01:21:19.716Z,7.50
2022-09-13T01:24:14.395Z,7.50
2022-09-13T01:27:16.751Z,7.30
2022-09-13T01:30:16.920Z,7.30
2022-09-13T01:33:12.093Z,7.20
2022-09-13T01:36:16.423Z,7.10
2022-09-13T01:38:54.811Z,7.10
2022-09-13T01:41:46.534Z,7.00
2022-09-13T01:44:26.922Z,6.90
2022-09-13T01:47:04.682Z,6.70
2022-09-13T01:49:37.912Z,6.90
2022-09-13T01:52:13.179Z,6.80
2022-09-13T01:54:51.784Z,6.90
2022-09-13T01:57:28.950Z,7.00
2022-09-13T02:00:02.310Z,6.90
2022-09-13T02:02:35.919Z,7.00
2022-09-13T02:05:09.230Z,7.10
2022-09-13T02:07:41.474Z,7.00
2022-09-13T02:10:14.398Z,7.00
2022-09-13T02:12:44.241Z,6.90
2022-09-13T02:15:17.156Z,6.90
2022-09-13T02:17:50.719Z,7.00
2022-09-13T02:20:22.500Z,7.00
2022-09-13T02:22:57.992Z,6.60
2022-09-13T02:25:27.799Z,6.70
2022-09-13T02:28:01.701Z,6.60
2022-09-13T02:30:33.036Z,6.70
2022-09-13T02:33:06.317Z,6.80
2022-09-13T02:35:37.800Z,6.80
2022-09-13T02:38:10.022Z,6.90
2022-09-13T02:40:44.191Z,6.80
2022-09-13T02:43:16.205Z,6.70
2022-09-13T02:45:50.970Z,6.80
2022-09-13T02:48:32.403Z,6.70
2022-09-13T02:51:08.062Z,6.70
2022-09-13T02:53:44.754Z,6.50
2022-09-13T02:56:23.110Z,6.60
2022-09-13T02:58:58.045Z,6.50
2022-09-13T03:01:26.412Z,6.60
2022-09-13T03:03:56.212Z,6.60
2022-09-13T03:06:25.618Z,6.70
2022-09-13T03:08:54.035Z,6.80
2022-09-13T03:11:35.097Z,6.70
2022-09-13T03:14:19.114Z,6.70
2022-09-13T03:17:07.500Z,6.50
2022-09-13T03:20:04.684Z,6.60
2022-09-13T03:22:56.563Z,6.60
2022-09-13T03:25:35.800Z,6.80
2022-09-13T03:28:14.727Z,6.40
2022-09-13T03:30:49.235Z,6.50
2022-09-13T03:33:29.302Z,6.40
2022-09-13T03:36:06.241Z,6.50
2022-09-13T03:38:39.539Z,6.30
2022-09-13T03:41:12.066Z,6.20
2022-09-13T03:43:45.021Z,6.20
2022-09-13T03:46:22.294Z,6.10
2022-09-13T03:48:51.422Z,6.20
2022-09-13T03:51:21.550Z,6.40
2022-09-13T03:53:56.275Z,6.40
2022-09-13T03:56:24.328Z,6.30
2022-09-13T03:58:55.073Z,6.60
2022-09-13T04:01:25.381Z,6.70
2022-09-13T04:03:56.794Z,6.70
2022-09-13T04:06:26.803Z,6.80
2022-09-13T04:08:54.873Z,6.70
2022-09-13T04:11:24.174Z,6.80
2022-09-13T04:13:52.421Z,6.80
2022-09-13T04:16:20.499Z,6.80
2022-09-13T04:18:48.538Z,6.80
2022-09-13T04:21:17.731Z,6.90
2022-09-13T04:23:51.360Z,6.60
2022-09-13T04:26:19.371Z,6.60
2022-09-13T04:28:47.490Z,6.60
2022-09-13T04:31:15.676Z,6.50
2022-09-13T04:33:43.731Z,6.50
2022-09-13T04:36:11.777Z,6.50
2022-09-13T04:38:39.761Z,6.60
2022-09-13T04:41:10.847Z,6.50
2022-09-13T04:43:38.796Z,6.50
2022-09-13T04:46:06.976Z,6.50
2022-09-13T04:48:35.703Z,6.40
2022-09-13T04:51:04.671Z,6.40
2022-09-13T04:53:32.803Z,6.30
2022-09-13T04:56:02.760Z,6.30
2022-09-13T04:58:32.955Z,6.40
2022-09-13T05:01:02.921Z,6.20
2022-09-13T05:03:31.727Z,6.10
2022-09-13T05:06:03.906Z,6.00
2022-09-13T05:08:32.479Z,6.30
2022-09-13T05:11:00.633Z,6.40
2022-09-13T05:13:28.813Z,6.30
2022-09-13T05:15:59.302Z,6.40
2022-09-13T05:18:27.879Z,6.50
2022-09-13T05:20:56.540Z,6.70
2022-09-13T05:23:25.334Z,6.60
2022-09-13T05:25:56.755Z,6.70
2022-09-13T05:28:25.798Z,6.70
2022-09-13T05:30:59.676Z,6.80
2022-09-13T05:33:30.971Z,6.80
2022-09-13T05:35:59.217Z,6.80
2022-09-13T05:38:27.252Z,6.70
2022-09-13T05:40:57.049Z,6.80
2022-09-13T05:43:26.522Z,7.00
2022-09-13T05:46:03.850Z,7.00
2022-09-13T05:48:32.571Z,6.90
2022-09-13T05:51:06.969Z,7.00
2022-09-13T05:53:35.044Z,6.90
2022-09-13T05:56:03.455Z,7.00
2022-09-13T05:58:31.494Z,6.90
2022-09-13T06:00:59.522Z,7.10
2022-09-13T06:03:29.019Z,7.30
2022-09-13T06:05:58.143Z,7.40
2022-09-13T06:08:26.597Z,7.50
2022-09-13T06:10:56.210Z,7.70
2022-09-13T06:13:24.283Z,7.80
2022-09-13T06:15:52.809Z,7.80
2022-09-13T06:18:21.284Z,7.60
2022-09-13T06:20:50.696Z,7.60
2022-09-13T06:23:18.726Z,7.90
2022-09-13T06:25:46.779Z,8.00
2022-09-13T06:28:15.247Z,8.10
2022-09-13T06:30:43.369Z,8.10
2022-09-13T06:33:11.375Z,8.20
2022-09-13T06:35:39.373Z,8.00
2022-09-13T06:38:08.765Z,8.20
2022-09-13T06:40:36.791Z,8.30
2022-09-13T06:43:04.817Z,8.20
2022-09-13T06:45:32.791Z,8.00
2022-09-13T06:48:00.776Z,8.40
2022-09-13T06:50:28.820Z,8.50
2022-09-13T06:52:57.848Z,8.50
2022-09-13T06:55:27.950Z,8.60
2022-09-13T06:57:55.951Z,8.60
2022-09-13T07:00:24.014Z,9.00
2022-09-13T07:02:52.848Z,9.10
2022-09-13T07:05:21.012Z,9.50
2022-09-13T07:07:49.251Z,10.00
2022-09-13T07:10:17.384Z,10.20
2022-09-13T07:12:46.721Z,10.50
2022-09-13T07:15:14.906Z,10.90
2022-09-13T07:17:42.976Z,10.90
2022-09-13T07:20:11.315Z,11.10
2022-09-13T07:22:39.290Z,11.20
2022-09-13T07:25:08.454Z,11.00
2022-09-13T07:27:36.502Z,11.10
2022-09-13T07:30:06.990Z,11.30
2022-09-13T07:32:35.069Z,11.00
2022-09-13T07:35:03.038Z,11.20
2022-09-13T07:37:31.247Z,11.10
2022-09-13T07:39:59.264Z,11.50
2022-09-13T07:42:27.864Z,11.70
2022-09-13T07:44:55.842Z,11.80
2022-09-13T07:47:25.242Z,11.90
2022-09-13T07:49:53.436Z,12.00
2022-09-13T07:52:21.510Z,11.80
2022-09-13T07:54:49.523Z,11.90
2022-09-13T07:57:17.591Z,12.10
2022-09-13T07:59:45.576Z,12.30
2022-09-13T08:02:13.975Z,12.60
2022-09-13T08:04:43.408Z,12.80
2022-09-13T08:07:11.431Z,13.10
2022-09-13T08:09:39.499Z,13.10
2022-09-13T08:12:07.995Z,13.40
2022-09-13T08:14:35.998Z,13.70
2022-09-13T08:17:03.990Z,13.80
2022-09-13T08:19:31.990Z,13.80
2022-09-13T08:22:01.398Z,14.20
2022-09-13T08:24:29.429Z,14.40
2022-09-13T08:26:57.451Z,14.50
2022-09-13T08:29:26.289Z,14.70
2022-09-13T08:31:54.306Z,15.00
2022-09-13T08:34:22.407Z,15.20
2022-09-13T08:36:50.394Z,15.40
2022-09-13T08:39:19.756Z,15.50
2022-09-13T08:42:09.722Z,15.60
2022-09-13T08:44:43.434Z,15.60
2022-09-13T08:47:25.511Z,15.90
2022-09-13T08:50:00.036Z,16.10
2022-09-13T08:52:31.918Z,16.30
2022-09-13T08:55:04.543Z,16.60
2022-09-13T08:57:42.040Z,16.80
2022-09-13T09:00:20.820Z,16.90
2022-09-13T09:03:11.296Z,16.90
2022-09-13T09:05:47.758Z,17.10
2022-09-13T09:08:27.116Z,17.10
2022-09-13T09:11:00.084Z,17.30
2022-09-13T09:13:32.410Z,17.30
2022-09-13T09:16:03.800Z,17.40
2022-09-13T09:18:36.786Z,17.40
2022-09-13T09:21:06.063Z,17.60
2022-09-13T09:23:40.554Z,17.60
2022-09-13T09:26:18.346Z,17.60
2022-09-13T09:28:50.949Z,17.60
2022-09-13T09:31:27.631Z,17.70
2022-09-13T09:34:09.527Z,17.70
2022-09-13T09:36:43.356Z,17.80
2022-09-13T09:39:14.096Z,17.80
2022-09-13T09:41:45.173Z,18.00
2022-09-13T09:44:20.258Z,17.90
2022-09-13T09:46:51.465Z,18.00
2022-09-13T09:49:41.159Z,18.00
2022-09-13T09:52:14.605Z,17.60
2022-09-13T09:54:42.627Z,17.60
2022-09-13T09:57:12.132Z,17.90
2022-09-13T09:59:40.181Z,18.00
2022-09-13T10:02:17.276Z,17.80
2022-09-13T10:04:56.232Z,18.00
2022-09-13T10:07:27.965Z,18.20
2022-09-13T10:10:01.284Z,18.40
2022-09-13T10:12:34.172Z,18.40
2022-09-13T10:15:18.154Z,18.50
2022-09-13T10:18:21.197Z,18.70
2022-09-13T10:21:02.955Z,19.20
2022-09-13T10:23:31.975Z,19.40
2022-09-13T10:26:10.070Z,19.50
2022-09-13T10:28:47.094Z,19.90
2022-09-13T10:31:17.839Z,20.30
2022-09-13T10:33:57.555Z,20.00
2022-09-13T10:36:51.224Z,20.00
2022-09-13T10:39:21.319Z,19.80
2022-09-13T10:41:55.474Z,19.40
2022-09-13T10:44:29.769Z,19.40
2022-09-13T10:46:58.931Z,19.40
2022-09-13T10:49:37.644Z,19.60
2022-09-13T10:52:24.664Z,19.70
2022-09-13T10:54:53.327Z,19.60
2022-09-13T10:57:35.250Z,19.80
2022-09-13T11:00:09.065Z,19.60
2022-09-13T11:03:06.454Z,19.50
2022-09-13T11:05:40.969Z,19.20
2022-09-13T11:08:36.484Z,19.50
2022-09-13T11:11:13.323Z,19.70
2022-09-13T11:13:56.172Z,19.80
2022-09-13T11:16:42.580Z,19.90
2022-09-13T11:19:46.554Z,19.80
2022-09-13T11:22:35.242Z,19.90
2022-09-13T11:25:14.658Z,19.80
2022-09-13T11:27:52.555Z,19.70
2022-09-13T11:30:25.393Z,19.90
2022-09-13T11:33:22.817Z,20.00
2022-09-13T11:36:05.563Z,20.00
2022-09-13T11:38:41.757Z,20.00
2022-09-13T11:41:28.196Z,20.20
2022-09-13T11:44:18.346Z,20.10
2022-09-13T11:46:55.766Z,20.00
2022-09-13T11:49:39.006Z,20.20
2022-09-13T11:52:16.733Z,20.60
2022-09-13T11:55:00.369Z,20.80
2022-09-13T11:57:33.777Z,20.70
2022-09-13T12:00:05.595Z,20.80
2022-09-13T12:02:41.665Z,20.80
2022-09-13T12:05:24.521Z,21.00
2022-09-13T12:07:59.074Z,21.40
2022-09-13T12:10:31.049Z,21.40
2022-09-13T12:13:01.628Z,21.20
2022-09-13T12:15:37.892Z,21.10
2022-09-13T12:18:14.676Z,21.20
2022-09-13T12:20:49.106Z,21.50
2022-09-13T12:23:21.841Z,21.60
2022-09-13T12:25:56.718Z,21.40
2022-09-13T12:28:28.378Z,21.20
2022-09-13T12:31:00.712Z,20.90
2022-09-13T12:33:29.242Z,20.80
2022-09-13T12:36:22.915Z,20.70
2022-09-13T12:39:09.542Z,20.70
2022-09-13T12:41:50.510Z,20.70
2022-09-13T12:44:48.082Z,20.50
2022-09-13T12:47:49.696Z,20.50
2022-09-13T12:50:45.954Z,20.50
2022-09-13T12:53:38.948Z,20.60
2022-09-13T12:56:27.688Z,20.90
2022-09-13T12:59:35.740Z,20.80
2022-09-13T13:02:05.716Z,20.70
2022-09-13T13:04:36.911Z,20.70
2022-09-13T13:07:08.076Z,20.70
2022-09-13T13:09:42.358Z,20.50
2022-09-13T13:12:11.740Z,20.40
2022-09-13T13:14:53.376Z,20.30
2022-09-13T13:17:46.741Z,20.40
2022-09-13T13:20:45.907Z,20.40
2022-09-13T13:23:24.424Z,20.50
2022-09-13T13:26:31.255Z,20.50
2022-09-13T13:29:17.084Z,20.60
2022-09-13T13:32:07.329Z,20.90
2022-09-13T13:34:42.779Z,20.80
2022-09-13T13:37:32.226Z,20.90
2022-09-13T13:40:21.763Z,21.10
2022-09-13T13:42:50.149Z,20.90
2022-09-13T13:45:26.092Z,20.90
2022-09-13T13:48:10.423Z,20.80
2022-09-13T13:51:12.515Z,20.70
2022-09-13T13:53:42.908Z,20.70
2022-09-13T13:56:20.414Z,20.70
2022-09-13T13:58:52.578Z,20.70
2022-09-13T14:01:27.061Z,20.50
2022-09-13T14:04:33.118Z,20.50
2022-09-13T14:07:19.404Z,20.50
2022-09-13T14:09:54.879Z,20.40
2022-09-13T14:12:37.970Z,20.40
2022-09-13T14:15:22.093Z,20.10
2022-09-13T14:18:05.094Z,20.20
2022-09-13T14:20:33.115Z,20.20
2022-09-13T14:23:17.189Z,20.20
2022-09-13T14:25:45.559Z,20.20
2022-09-13T14:28:18.828Z,20.20
2022-09-13T14:30:47.808Z,20.20
2022-09-13T14:33:30.812Z,20.20
2022-09-13T14:36:04.346Z,20.30
2022-09-13T14:38:36.584Z,20.20
2022-09-13T14:41:15.380Z,20.30
2022-09-13T14:43:44.142Z,20.30
2022-09-13T14:46:15.990Z,20.40
2022-09-13T14:48:51.418Z,20.50
2022-09-13T14:51:23.571Z,20.60
2022-09-13T14:53:53.707Z,20.70
2022-09-13T14:56:29.167Z,20.50
2022-09-13T14:59:00.651Z,20.40
2022-09-13T15:01:32.621Z,20.30
2022-09-13T15:04:04.562Z,20.10
2022-09-13T15:06:34.873Z,20.10
2022-09-13T15:09:16.254Z,20.00
2022-09-13T15:11:57.975Z,19.90
2022-09-13T15:14:28.834Z,19.90
2022-09-13T15:17:01.960Z,19.80
2022-09-13T15:19:36.895Z,19.70
2022-09-13T15:22:20.764Z,19.70
2022-09-13T15:24:51.873Z,19.70
2022-09-13T15:27:23.150Z,19.80
2022-09-13T15:29:53.024Z,19.70
2022-09-13T15:32:23.928Z,19.70
2022-09-13T15:34:53.439Z,19.70
2022-09-13T15:37:34.647Z,19.60
2022-09-13T15:40:30.529Z,19.70
2022-09-13T15:42:58.673Z,19.60
2022-09-13T15:45:26.851Z,19.70
2022-09-13T15:47:54.904Z,19.80
2022-09-13T15:50:28.897Z,19.70
2022-09-13T15:52:57.171Z,19.60
2022-09-13T15:55:26.227Z,19.50
2022-09-13T15:57:54.256Z,19.60
2022-09-13T16:00:24.259Z,19.60
2022-09-13T16:02:52.511Z,19.50
2022-09-13T16:05:21.002Z,19.50
2022-09-13T16:07:50.431Z,19.50
2022-09-13T16:10:20.966Z,19.40
2022-09-13T16:12:49.128Z,19.30
2022-09-13T16:15:17.302Z,19.30
2022-09-13T16:17:45.538Z,19.20
2022-09-13T16:20:15.292Z,19.20
2022-09-13T16:22:43.622Z,19.20
2022-09-13T16:25:14.173Z,19.10
2022-09-13T16:27:42.759Z,19.10
2022-09-13T16:30:13.664Z,19.10
2022-09-13T16:32:42.322Z,19.10
2022-09-13T16:35:11.135Z,19.20
2022-09-13T16:37:39.797Z,19.30
2022-09-13T16:40:09.967Z,19.20
2022-09-13T16:42:39.602Z,19.20
2022-09-13T16:45:08.930Z,19.20
2022-09-13T16:47:37.266Z,19.20
2022-09-13T16:50:06.359Z,19.10
2022-09-13T16:52:35.500Z,18.90
2022-09-13T16:55:03.977Z,18.80
2022-09-13T16:57:32.031Z,18.90
2022-09-13T17:00:03.806Z,18.80
2022-09-13T17:02:32.023Z,18.70
2022-09-13T17:05:00.661Z,18.70
2022-09-13T17:07:28.678Z,18.60
2022-09-13T17:09:57.742Z,18.40
2022-09-13T17:12:25.970Z,18.20
2022-09-13T17:14:55.008Z,18.00
2022-09-13T17:17:24.717Z,18.00
2022-09-13T17:19:52.954Z,18.00
2022-09-13T17:22:20.952Z,17.80
2022-09-13T17:24:49.301Z,17.60
2022-09-13T17:27:17.382Z,17.40
2022-09-13T17:29:45.481Z,17.30
2022-09-13T17:32:13.571Z,17.10
2022-09-13T17:34:42.979Z,17.00
2022-09-13T17:37:11.213Z,16.90
2022-09-13T17:39:39.372Z,17.00
2022-09-13T17:42:07.739Z,16.90
2022-09-13T17:44:36.339Z,16.80
2022-09-13T17:47:06.166Z,16.70
2022-09-13T17:49:34.570Z,16.50
2022-09-13T17:52:04.531Z,16.40
2022-09-13T17:54:32.622Z,16.30
2022-09-13T17:57:00.686Z,16.30
2022-09-13T17:59:30.575Z,16.30
2022-09-13T18:02:00.868Z,16.40
2022-09-13T18:04:29.160Z,16.40
2022-09-13T18:06:57.282Z,16.40
2022-09-13T18:09:26.981Z,16.20
2022-09-13T18:11:55.046Z,16.10
2022-09-13T18:14:23.842Z,16.10
2022-09-13T18:16:55.687Z,16.00
2022-09-13T18:19:44.394Z,16.00
2022-09-13T18:22:12.381Z,15.90
2022-09-13T18:24:42.166Z,15.90
2022-09-13T18:27:10.379Z,15.90
2022-09-13T18:29:38.453Z,15.90
2022-09-13T18:32:06.985Z,15.90
2022-09-13T18:34:34.980Z,15.80
2022-09-13T18:37:02.995Z,15.80
2022-09-13T18:39:31.551Z,15.70
2022-09-13T18:42:01.613Z,15.70
2022-09-13T18:44:30.306Z,15.70
2022-09-13T18:46:58.788Z,15.70
2022-09-13T18:49:26.992Z,15.60
2022-09-13T18:51:55.060Z,15.50
2022-09-13T18:54:23.033Z,15.30
2022-09-13T18:56:51.054Z,15.40
2022-09-13T18:59:20.424Z,15.30
2022-09-13T19:01:48.855Z,15.30
2022-09-13T19:04:19.410Z,15.20
2022-09-13T19:06:48.979Z,15.20
2022-09-13T19:09:20.599Z,15.10
2022-09-13T19:11:50.279Z,14.90
2022-09-13T19:14:22.853Z,14.80
2022-09-13T19:16:51.664Z,14.70
2022-09-13T19:19:20.530Z,14.60
2022-09-13T19:21:48.782Z,14.50
2022-09-13T19:24:19.099Z,14.40
2022-09-13T19:26:49.235Z,14.30
2022-09-13T19:29:18.896Z,14.30
2022-09-13T19:31:49.899Z,14.20
2022-09-13T19:34:19.457Z,14.20
2022-09-13T19:36:50.345Z,14.20
2022-09-13T19:39:18.568Z,14.20
2022-09-13T19:41:46.610Z,14.20
2022-09-13T19:44:15.183Z,14.10
2022-09-13T19:46:43.757Z,13.90
2022-09-13T19:49:16.453Z,14.10
2022-09-13T19:51:50.239Z,14.10
2022-09-13T19:54:20.568Z,14.20
2022-09-13T19:56:50.038Z,14.10
2022-09-13T19:59:20.409Z,14.10
2022-09-13T20:01:49.050Z,14.10
2022-09-13T20:04:20.845Z,14.10
2022-09-13T20:06:50.437Z,14.20
2022-09-13T20:09:20.586Z,14.10
2022-09-13T20:11:49.129Z,14.00
2022-09-13T20:14:19.297Z,13.90
2022-09-13T20:16:47.903Z,13.90
2022-09-13T20:22:07.960Z,13.90
2022-09-13T20:24:36.028Z,13.80
2022-09-13T20:27:04.115Z,13.70
2022-09-13T20:29:32.463Z,13.60
2022-09-13T20:32:02.044Z,13.60
2022-09-13T20:34:31.720Z,13.60
2022-09-13T20:36:59.910Z,13.50
2022-09-13T20:39:27.978Z,13.50
2022-09-13T20:41:56.655Z,13.40
2022-09-13T20:44:24.598Z,13.40
2022-09-13T20:46:52.623Z,13.40
2022-09-13T20:49:21.806Z,13.40
2022-09-13T20:51:51.299Z,13.40
2022-09-13T20:54:19.759Z,13.50
2022-09-13T20:56:47.831Z,13.40
2022-09-13T20:59:15.849Z,13.50
2022-09-13T21:01:44.088Z,13.40
2022-09-13T21:04:12.150Z,13.40
2022-09-13T21:07:02.633Z,13.30
2022-09-13T21:09:32.448Z,13.30
2022-09-13T21:12:01.240Z,13.20
2022-09-13T21:14:32.210Z,13.20
2022-09-13T21:17:00.388Z,13.20
2022-09-13T21:19:29.741Z,13.20
2022-09-13T21:21:57.812Z,13.20
2022-09-13T21:24:25.971Z,13.10
2022-09-13T21:26:55.526Z,13.10
2022-09-13T21:29:23.887Z,13.00
2022-09-13T21:31:52.323Z,13.00
2022-09-13T21:34:20.629Z,13.00
2022-09-13T21:36:49.128Z,12.90
2022-09-13T21:39:18.528Z,12.90
2022-09-13T21:41:47.535Z,12.90
2022-09-13T21:44:17.856Z,12.90
2022-09-13T21:46:46.669Z,13.00
2022-09-13T21:49:15.703Z,13.00
2022-09-13T21:51:45.617Z,13.00
2022-09-13T21:54:15.898Z,13.00
2022-09-13T21:56:45.254Z,13.00
2022-09-13T21:59:15.507Z,12.90
2022-09-13T22:01:48.508Z,12.80
2022-09-13T22:04:18.283Z,12.80
2022-09-13T22:06:47.892Z,12.80
2022-09-13T22:09:16.718Z,12.80
2022-09-13T22:11:46.279Z,12.80
2022-09-13T22:14:16.531Z,12.80
2022-09-13T22:16:47.616Z,12.80
2022-09-13T22:19:17.715Z,12.80
2022-09-13T22:21:47.896Z,12.80
2022-09-13T22:24:18.750Z,12.80
2022-09-13T22:26:48.499Z,12.80
2022-09-13T22:29:17.387Z,12.80
2022-09-13T22:31:49.618Z,12.80
2022-09-13T22:34:19.365Z,12.60
2022-09-13T22:36:47.862Z,12.60
2022-09-13T22:39:17.765Z,12.60
2022-09-13T22:41:46.780Z,12.60
2022-09-13T22:44:15.485Z,12.60
2022-09-13T22:46:47.434Z,12.60
2022-09-13T22:49:17.378Z,12.70
2022-09-13T22:51:46.541Z,12.80
2022-09-13T22:54:15.088Z,12.70
2022-09-13T22:56:43.207Z,12.80
2022-09-13T22:59:15.008Z,12.80
2022-09-13T23:01:43.532Z,12.70
2022-09-13T23:04:13.369Z,12.80
2022-09-13T23:06:43.704Z,12.90
2022-09-13T23:09:13.866Z,12.90
2022-09-13T23:11:41.974Z,12.90
2022-09-13T23:14:11.951Z,13.00
2022-09-13T23:16:42.808Z,13.00
2022-09-13T23:19:13.220Z,13.00
2022-09-13T23:21:41.724Z,12.90
2022-09-13T23:24:13.119Z,12.90
2022-09-13T23:26:41.347Z,12.90
2022-09-13T23:29:13.574Z,12.90
2022-09-13T23:31:42.435Z,12.80
2022-09-13T23:34:12.947Z,12.90
2022-09-13T23:36:42.413Z,12.90
2022-09-13T23:39:16.246Z,12.90
2022-09-13T23:41:44.922Z,13.00
2022-09-13T23:44:13.018Z,13.00
2022-09-13T23:46:41.053Z,13.10
2022-09-13T23:49:09.096Z,13.10
2022-09-13T23:51:38.447Z,13.00
2022-09-13T23:54:06.698Z,13.00
2022-09-13T23:56:36.000Z,13.10
2022-09-13T23:59:05.349Z,13.10
